Time;durP1;ratioP1;P1;durP2;ratioP2;P2;SDS_P1;SDS_P2;PMS_P1;PMS_P2;Temp;Humidity;BMP_temperature;BMP_pressure;BME280_temperature;BME280_humidity;BME280_pressure;Samples;Min_cycle;Max_cycle;Signal;HPM_P1;HPM_P2
2021/10/19 00:02:15;;;;;;;28.57;19.80;;;;;;;8.21;71.32;100971.68;1805196;79;21308;-61
2021/10/19 00:05:21;;;;;;;32.38;18.10;;;;;;;8.21;71.34;100964.37;1804971;79;21415;-62
2021/10/19 00:08:28;;;;;;;27.37;18.55;;;;;;;8.20;71.33;100970.81;1804678;79;21169;-60
2021/10/19 00:11:34;;;;;;;31.50;19.98;;;;;;;8.22;71.34;100974.75;1804874;79;21371;-62
2021/10/19 00:14:40;;;;;;;30.00;19.48;;;;;;;8.21;71.35;100967.59;1804683;79;21312;-61
2021/10/19 00:17:49;;;;;;;30.70;19.48;;;;;;;8.21;71.33;100973.91;1804835;79;21775;-61
2021/10/19 00:20:56;;;;;;;26.93;17.48;;;;;;;8.21;71.39;100974.41;1804753;79;21185;-61
2021/10/19 00:24:02;;;;;;;27.10;18.15;;;;;;;8.23;71.41;100975.16;1804701;79;21327;-60
2021/10/19 00:27:12;;;;;;;32.25;19.17;;;;;;;8.23;71.38;100971.08;1805202;79;21418;-61
2021/10/19 00:30:20;;;;;;;27.98;17.52;;;;;;;8.21;71.41;100976.64;1805060;79;21411;-62
2021/10/19 00:33:26;;;;;;;27.30;18.15;;;;;;;8.23;71.50;100977.89;1805254;79;21331;-62
2021/10/19 00:36:32;;;;;;;31.77;19.05;;;;;;;8.26;71.55;100972.98;1804686;79;21379;-62
2021/10/19 00:39:37;;;;;;;28.60;17.77;;;;;;;8.27;71.54;100971.99;1804965;79;21425;-61
2021/10/19 00:42:44;;;;;;;31.10;18.30;;;;;;;8.30;71.52;100970.83;1804826;79;21650;-61
2021/10/19 00:45:50;;;;;;;27.05;17.90;;;;;;;8.30;71.55;100977.64;1802881;78;21364;-61
2021/10/19 00:48:57;;;;;;;29.18;19.35;;;;;;;8.32;71.64;100981.09;1803116;79;21810;-61
2021/10/19 00:52:03;;;;;;;27.35;18.65;;;;;;;8.33;71.71;100985.53;1803113;79;21323;-61
2021/10/19 00:55:09;;;;;;;29.80;19.02;;;;;;;8.34;71.85;100992.20;1803101;79;21335;-60
2021/10/19 00:58:14;;;;;;;27.15;18.55;;;;;;;8.33;71.98;100998.67;1774689;79;21307;-61
2021/10/19 01:01:19;;;;;;;30.77;20.15;;;;;;;8.32;72.15;101012.46;1803585;79;21355;-60
2021/10/19 01:04:26;;;;;;;33.75;19.17;;;;;;;8.28;72.36;101016.47;1803464;79;21373;-61
2021/10/19 01:07:32;;;;;;;30.80;19.37;;;;;;;8.19;72.72;101006.41;1803186;79;21821;-62
2021/10/19 01:10:39;;;;;;;33.67;19.80;;;;;;;8.17;73.18;101010.65;1803096;79;21363;-61
2021/10/19 01:13:46;;;;;;;31.05;19.92;;;;;;;8.11;73.60;101012.59;1803021;78;21173;-63
2021/10/19 01:16:52;;;;;;;31.62;19.35;;;;;;;8.06;74.17;101015.38;1803165;79;21320;-62
2021/10/19 01:19:58;;;;;;;28.62;19.23;;;;;;;7.97;74.66;101018.49;1803060;79;21383;-63
2021/10/19 01:23:11;;;;;;;28.87;18.87;;;;;;;7.90;75.23;101028.23;1802930;78;21174;-62
2021/10/19 01:26:18;;;;;;;28.02;18.20;;;;;;;7.85;75.83;101033.77;1802962;79;21209;-62
2021/10/19 01:29:26;;;;;;;31.55;19.25;;;;;;;7.83;76.28;101033.05;1803085;79;21316;-63
2021/10/19 01:32:31;;;;;;;25.48;17.75;;;;;;;7.80;76.69;101035.53;1803212;79;21185;-62
2021/10/19 01:35:43;;;;;;;22.42;15.30;;;;;;;7.76;77.26;101042.78;1785989;79;21315;-63
2021/10/19 01:38:49;;;;;;;20.68;13.35;;;;;;;7.65;77.94;101050.59;1788874;79;21826;-64
2021/10/19 01:41:56;;;;;;;19.25;10.90;;;;;;;7.55;78.66;101071.50;1788933;79;21698;-63
2021/10/19 01:45:03;;;;;;;16.37;9.20;;;;;;;7.46;79.11;101082.75;1776556;79;21658;-63
2021/10/19 01:48:11;;;;;;;12.82;7.20;;;;;;;7.29;79.46;101068.93;1786983;79;21319;-63
2021/10/19 01:51:16;;;;;;;11.95;8.08;;;;;;;7.14;79.89;101076.61;1790402;79;21331;-65
2021/10/19 01:54:21;;;;;;;15.58;7.90;;;;;;;6.97;80.33;101077.75;1786292;79;21203;-64
2021/10/19 01:57:28;;;;;;;12.40;7.28;;;;;;;6.80;80.95;101079.22;1786253;79;21714;-65
2021/10/19 02:00:34;;;;;;;11.55;6.65;;;;;;;6.75;81.46;101082.87;1791861;79;21327;-65
2021/10/19 02:03:40;;;;;;;8.93;6.55;;;;;;;6.72;81.79;101076.34;1788570;79;21324;-65
2021/10/19 02:06:46;;;;;;;11.50;7.05;;;;;;;6.68;82.10;101072.14;1791205;79;21319;-65
2021/10/19 02:09:54;;;;;;;8.70;6.42;;;;;;;6.63;82.34;101070.32;1791833;79;21296;-65
2021/10/19 02:13:01;;;;;;;12.15;6.85;;;;;;;6.59;82.66;101066.16;1791361;79;21288;-65
2021/10/19 02:16:08;;;;;;;11.35;6.70;;;;;;;6.58;82.94;101073.94;1790690;79;21213;-65
2021/10/19 02:19:14;;;;;;;9.73;6.83;;;;;;;6.59;83.29;101059.84;1787050;79;21308;-65
2021/10/19 02:22:19;;;;;;;9.43;5.72;;;;;;;6.65;83.52;101062.02;1791795;79;21881;-67
2021/10/19 02:25:24;;;;;;;10.53;6.10;;;;;;;6.68;83.47;101074.87;1789685;79;21188;-66
2021/10/19 02:28:30;;;;;;;10.38;6.45;;;;;;;6.68;83.28;101078.08;1791091;79;21362;-65
2021/10/19 02:31:37;;;;;;;8.23;5.45;;;;;;;6.68;83.19;101073.51;1788405;79;21351;-66
2021/10/19 02:34:42;;;;;;;8.80;5.37;;;;;;;6.67;83.05;101069.56;1789555;79;21359;-65
2021/10/19 02:37:49;;;;;;;13.05;5.67;;;;;;;6.69;83.26;101064.34;1791314;79;21225;-66
2021/10/19 02:40:54;;;;;;;10.93;5.58;;;;;;;6.72;83.21;101068.66;1791998;79;21371;-65
2021/10/19 02:43:58;;;;;;;8.63;5.60;;;;;;;6.75;83.40;101077.43;1804735;79;21666;-65
2021/10/19 02:47:05;;;;;;;9.53;5.40;;;;;;;6.79;83.43;101080.23;1805959;79;21379;-64
2021/10/19 02:50:13;;;;;;;8.05;5.30;;;;;;;6.82;83.56;101081.31;1803109;79;21343;-67
2021/10/19 02:53:19;;;;;;;8.98;5.65;;;;;;;6.87;83.62;101079.05;1802851;79;21351;-61
2021/10/19 02:56:28;;;;;;;10.18;5.37;;;;;;;6.91;83.64;101076.94;1795374;79;21320;-61
2021/10/19 02:59:34;;;;;;;7.78;4.92;;;;;;;6.93;83.52;101066.26;1802751;79;21295;-61
2021/10/19 03:02:39;;;;;;;9.38;5.12;;;;;;;6.96;83.50;101064.63;1802761;79;21381;-60
2021/10/19 03:05:45;;;;;;;11.45;6.45;;;;;;;6.96;83.48;101064.63;1802250;79;21363;-61
2021/10/19 03:08:50;;;;;;;10.78;6.87;;;;;;;6.96;83.42;101073.31;1802704;79;21162;-61
2021/10/19 03:11:55;;;;;;;11.63;7.28;;;;;;;6.91;83.47;101083.22;1802731;79;21817;-60
2021/10/19 03:15:02;;;;;;;11.08;6.33;;;;;;;6.91;83.69;101081.86;1803631;79;21367;-60
2021/10/19 03:18:08;;;;;;;11.80;7.00;;;;;;;6.90;83.75;101082.86;1803066;79;21387;-60
2021/10/19 03:21:16;;;;;;;10.28;5.95;;;;;;;6.91;83.80;101094.10;1791914;79;21398;-62
2021/10/19 03:24:21;;;;;;;11.45;6.22;;;;;;;6.91;83.76;101092.74;1803137;79;21308;-63
2021/10/19 03:27:27;;;;;;;9.85;5.50;;;;;;;6.92;83.81;101101.78;1802899;79;21312;-61
2021/10/19 03:30:33;;;;;;;8.58;5.62;;;;;;;6.91;83.78;101105.51;1803013;79;21351;-61
2021/10/19 03:33:37;;;;;;;7.80;5.15;;;;;;;6.87;83.51;101098.11;1802955;79;21813;-61
2021/10/19 03:36:42;;;;;;;8.13;5.15;;;;;;;6.83;83.46;101103.95;1802749;79;21355;-60
2021/10/19 03:39:48;;;;;;;8.88;5.33;;;;;;;6.81;83.42;101106.81;1802891;79;21240;-62
2021/10/19 03:42:54;;;;;;;8.70;5.72;;;;;;;6.78;83.25;101110.30;1803020;79;21320;-62
2021/10/19 03:46:00;;;;;;;9.48;6.17;;;;;;;6.70;82.99;101105.53;1803028;79;21847;-61
2021/10/19 03:49:07;;;;;;;21.45;13.00;;;;;;;6.61;82.75;101110.39;1801754;79;21340;-61
2021/10/19 03:52:14;;;;;;;11.25;6.45;;;;;;;6.51;82.56;101113.56;1804430;79;21300;-62
2021/10/19 03:55:20;;;;;;;11.30;6.03;;;;;;;6.40;82.55;101113.62;1804001;79;21406;-61
2021/10/19 03:58:26;;;;;;;8.95;5.08;;;;;;;6.31;82.60;101123.06;1802998;79;21319;-60
2021/10/19 04:01:31;;;;;;;8.85;5.67;;;;;;;6.20;82.65;101118.52;1803710;79;21324;-61
2021/10/19 04:04:39;;;;;;;9.03;6.25;;;;;;;6.10;82.76;101124.38;1802696;79;21216;-60
2021/10/19 04:07:47;;;;;;;17.52;6.10;;;;;;;5.99;82.92;101129.34;1802804;79;21177;-61
2021/10/19 04:10:52;;;;;;;8.90;6.55;;;;;;;5.91;83.14;101133.71;1802491;79;21343;-61
2021/10/19 04:13:58;;;;;;;8.48;5.78;;;;;;;5.83;83.39;101132.13;1802894;79;21299;-60
2021/10/19 04:17:05;;;;;;;12.35;6.67;;;;;;;5.76;83.64;101137.66;1802887;79;21300;-60
2021/10/19 04:20:13;;;;;;;11.22;6.45;;;;;;;5.70;83.87;101144.95;1802222;79;21402;-62
2021/10/19 04:23:20;;;;;;;9.63;6.30;;;;;;;5.67;84.13;101150.64;1802951;79;21726;-61
2021/10/19 04:26:28;;;;;;;10.93;6.72;;;;;;;5.62;84.33;101155.58;1802994;79;21336;-60
2021/10/19 04:29:34;;;;;;;11.93;6.70;;;;;;;5.59;84.49;101159.43;1802994;79;21190;-60
2021/10/19 04:32:41;;;;;;;13.03;7.12;;;;;;;5.55;84.67;101157.09;1803220;79;21304;-61
2021/10/19 04:35:46;;;;;;;10.45;6.78;;;;;;;5.50;84.84;101163.39;1802409;79;21343;-61
2021/10/19 04:38:53;;;;;;;14.73;8.13;;;;;;;5.47;85.06;101169.06;1803217;79;21307;-60
2021/10/19 04:42:01;;;;;;;12.18;7.22;;;;;;;5.44;85.25;101175.59;1802116;79;21300;-61
2021/10/19 04:45:06;;;;;;;12.70;8.28;;;;;;;5.44;85.44;101189.69;1792286;79;21828;-62
2021/10/19 04:48:14;;;;;;;15.38;9.63;;;;;;;5.42;85.60;101190.30;1798654;80;21855;-61
2021/10/19 04:51:23;;;;;;;17.85;10.28;;;;;;;5.42;85.77;101193.01;1798111;79;21835;-60
2021/10/19 04:54:31;;;;;;;22.15;14.18;;;;;;;5.43;85.98;101202.87;1782950;79;21303;-60
2021/10/19 04:57:38;;;;;;;23.65;12.53;;;;;;;5.42;86.12;101203.87;1789912;79;21347;-61
2021/10/19 05:00:48;;;;;;;18.50;11.22;;;;;;;5.44;86.37;101203.26;1772741;80;21351;-61
2021/10/19 05:03:55;;;;;;;18.30;11.68;;;;;;;5.48;86.58;101210.16;1772935;80;21228;-61
2021/10/19 05:07:02;;;;;;;22.30;12.45;;;;;;;5.51;86.84;101214.85;1772755;80;21245;-62
2021/10/19 05:10:09;;;;;;;31.82;17.65;;;;;;;5.54;87.08;101220.03;1780579;79;21355;-61
2021/10/19 05:13:19;;;;;;;27.48;18.50;;;;;;;5.55;87.29;101223.63;1803916;79;21328;-61
2021/10/19 05:16:26;;;;;;;33.18;21.42;;;;;;;5.56;87.58;101223.50;1796273;79;21378;-59
2021/10/19 05:19:32;;;;;;;20.85;13.05;;;;;;;5.59;87.82;101233.23;1794201;79;21323;-61
2021/10/19 05:22:41;;;;;;;18.92;14.75;;;;;;;5.62;88.10;101232.98;1786007;79;21327;-59
2021/10/19 05:25:47;;;;;;;24.00;16.10;;;;;;;5.64;88.31;101236.45;1757707;81;21235;-60
2021/10/19 05:28:53;;;;;;;20.10;13.08;;;;;;;5.67;88.49;101246.58;1803731;79;21905;-60
2021/10/19 05:31:59;;;;;;;21.52;14.10;;;;;;;5.70;88.64;101249.53;1803476;79;21837;-59
2021/10/19 05:35:04;;;;;;;19.48;13.72;;;;;;;5.72;88.76;101250.28;1803640;79;21688;-60
2021/10/19 05:38:10;;;;;;;20.30;14.05;;;;;;;5.74;88.89;101257.83;1803872;79;21312;-58
2021/10/19 05:41:17;;;;;;;21.00;13.40;;;;;;;5.75;89.04;101260.89;1803874;79;21351;-58
2021/10/19 05:44:23;;;;;;;20.30;14.53;;;;;;;5.78;89.16;101264.23;1784906;79;21919;-60
2021/10/19 05:47:29;;;;;;;24.43;16.20;;;;;;;5.82;89.21;101263.50;1785547;79;21801;-59
2021/10/19 05:50:40;;;;;;;20.02;13.18;;;;;;;5.83;89.30;101266.12;1804115;79;21721;-59
2021/10/19 05:53:48;;;;;;;20.72;14.07;;;;;;;5.87;89.29;101270.80;1777580;79;21355;-58
2021/10/19 05:56:57;;;;;;;19.82;14.78;;;;;;;5.90;89.34;101273.26;1761573;81;21696;-58
2021/10/19 06:00:06;;;;;;;22.45;12.68;;;;;;;5.91;89.35;101279.09;1787538;80;21817;-59
2021/10/19 06:03:12;;;;;;;21.95;13.20;;;;;;;5.94;89.25;101281.06;1788047;80;21824;-58
2021/10/19 06:06:22;;;;;;;23.75;14.55;;;;;;;5.97;89.21;101288.09;1788083;80;21390;-58
2021/10/19 06:09:28;;;;;;;23.12;13.58;;;;;;;5.99;89.00;101282.05;1784281;79;21211;-56
2021/10/19 06:12:36;;;;;;;21.33;13.58;;;;;;;6.02;88.94;101288.59;1781460;79;21321;-58
2021/10/19 06:15:46;;;;;;;19.27;13.03;;;;;;;6.03;88.67;101294.37;1786999;79;21235;-58
2021/10/19 06:18:52;;;;;;;18.12;12.10;;;;;;;6.02;88.41;101286.70;1773531;80;21562;-57
2021/10/19 06:21:59;;;;;;;19.40;12.73;;;;;;;6.06;88.29;101293.64;1772204;80;21339;-57
2021/10/19 06:25:05;;;;;;;21.68;13.32;;;;;;;6.10;88.28;101292.39;1773445;79;21391;-57
2021/10/19 06:28:13;;;;;;;19.05;12.15;;;;;;;6.17;88.29;101295.98;1772192;81;21404;-57
2021/10/19 06:31:17;;;;;;;19.12;12.53;;;;;;;6.22;88.04;101287.81;1786290;79;21350;-59
2021/10/19 06:34:29;;;;;;;15.83;11.38;;;;;;;6.27;87.71;101291.50;1733244;82;21232;-59
2021/10/19 06:37:35;;;;;;;18.67;12.10;;;;;;;6.32;87.48;101303.75;1802218;79;21347;-56
2021/10/19 06:40:42;;;;;;;14.68;11.05;;;;;;;6.38;87.18;101296.44;1718788;82;21207;-59
2021/10/19 06:43:52;;;;;;;18.35;11.53;;;;;;;6.44;86.79;101309.52;1724215;83;21328;-57
2021/10/19 06:46:59;;;;;;;15.30;10.08;;;;;;;6.49;86.26;101311.36;1798999;79;21366;-57
2021/10/19 06:50:08;;;;;;;23.05;14.13;;;;;;;6.52;85.39;101309.75;1801625;79;21253;-56
2021/10/19 06:53:16;;;;;;;16.97;10.03;;;;;;;6.55;85.03;101310.84;1714826;79;21227;-57
2021/10/19 06:56:23;;;;;;;19.05;11.55;;;;;;;6.62;84.62;101311.20;1720066;82;21352;-57
2021/10/19 06:59:28;;;;;;;16.60;10.38;;;;;;;6.69;84.60;101305.12;1726572;82;21717;-56
2021/10/19 07:02:36;;;;;;;23.25;12.55;;;;;;;6.79;84.25;101316.09;1778369;79;21387;-60
2021/10/19 07:05:42;;;;;;;16.55;9.00;;;;;;;6.84;83.61;101307.92;1777277;79;21297;-59
2021/10/19 07:08:49;;;;;;;21.00;12.45;;;;;;;6.89;82.92;101319.29;1770320;79;21205;-60
2021/10/19 07:11:57;;;;;;;12.28;8.90;;;;;;;6.95;82.28;101316.53;1770442;80;21190;-61
2021/10/19 07:15:04;;;;;;;13.95;9.98;;;;;;;6.99;81.68;101309.33;1778164;79;21746;-60
2021/10/19 07:18:14;;;;;;;14.98;10.20;;;;;;;7.08;81.31;101319.94;1767860;79;21197;-60
2021/10/19 07:21:23;;;;;;;14.60;9.03;;;;;;;7.15;80.77;101315.72;1769535;80;21255;-60
2021/10/19 07:24:32;;;;;;;12.45;7.78;;;;;;;7.23;80.41;101312.69;1769877;80;21715;-63
2021/10/19 07:27:44;;;;;;;12.98;7.65;;;;;;;7.32;79.95;101310.55;1769780;80;21209;-60
2021/10/19 07:30:51;;;;;;;17.67;8.25;;;;;;;7.40;79.08;101309.36;1770447;81;21217;-59
2021/10/19 07:33:58;;;;;;;11.90;7.05;;;;;;;7.46;77.88;101310.21;1770728;80;21343;-60
2021/10/19 07:37:06;;;;;;;12.53;7.17;;;;;;;7.53;77.38;101319.56;1771188;79;21217;-59
2021/10/19 07:40:16;;;;;;;10.08;6.87;;;;;;;7.59;76.37;101306.76;1775738;79;21208;-59
2021/10/19 07:43:24;;;;;;;12.70;7.10;;;;;;;7.68;76.27;101313.27;1770371;79;21331;-59
2021/10/19 07:46:31;;;;;;;10.78;6.87;;;;;;;7.78;75.93;101321.50;1788581;80;21196;-57
2021/10/19 07:49:38;;;;;;;9.80;6.25;;;;;;;7.89;75.01;101330.96;1787944;80;21200;-59
2021/10/19 07:52:47;;;;;;;10.18;5.95;;;;;;;7.95;73.55;101324.95;1788059;79;21407;-62
2021/10/19 07:55:54;;;;;;;9.03;6.58;;;;;;;8.02;73.28;101324.79;1790613;79;21224;-60
2021/10/19 07:59:05;;;;;;;9.73;5.90;;;;;;;8.12;73.58;101327.07;1769843;80;21259;-59
2021/10/19 08:02:12;;;;;;;9.98;5.80;;;;;;;8.22;72.80;101335.64;1770768;79;21209;-60
2021/10/19 08:05:19;;;;;;;20.37;6.25;;;;;;;8.32;71.52;101345.27;1787113;79;21324;-62
2021/10/19 08:08:27;;;;;;;14.33;5.70;;;;;;;8.37;71.12;101349.81;1778960;79;21869;-60
2021/10/19 08:11:33;;;;;;;10.23;5.53;;;;;;;8.44;70.21;101345.02;1781407;79;21200;-58
2021/10/19 08:14:44;;;;;;;8.33;5.10;;;;;;;8.46;69.03;101358.03;1771684;79;21228;-58
2021/10/19 08:17:51;;;;;;;10.18;5.50;;;;;;;8.50;68.14;101351.80;1769270;81;21162;-59
2021/10/19 08:20:58;;;;;;;6.85;4.37;;;;;;;8.55;67.81;101363.13;1783614;79;21200;-60
2021/10/19 08:24:06;;;;;;;9.53;4.67;;;;;;;8.62;67.07;101373.87;1801463;79;21382;-60
2021/10/19 08:27:13;;;;;;;7.95;3.67;;;;;;;8.68;65.73;101359.66;1792777;79;21232;-59
2021/10/19 08:30:20;;;;;;;11.35;5.08;;;;;;;8.77;64.72;101361.53;1779216;79;21232;-59
2021/10/19 08:33:26;;;;;;;5.75;3.55;;;;;;;8.92;64.54;101361.51;1761391;80;21205;-61
2021/10/19 08:36:32;;;;;;;6.03;3.67;;;;;;;9.16;63.22;101357.88;1796033;79;21298;-60
2021/10/19 08:39:40;;;;;;;5.50;3.33;;;;;;;9.36;62.09;101373.25;1732021;82;21653;-60
2021/10/19 08:42:51;;;;;;;4.62;3.22;;;;;;;9.48;60.42;101369.35;1786051;79;21200;-60
2021/10/19 08:45:57;;;;;;;5.15;2.10;;;;;;;9.60;59.62;101366.84;1785634;79;21186;-60
2021/10/19 08:49:05;;;;;;;3.55;1.92;;;;;;;9.70;56.88;101367.70;1784962;79;21707;-59
2021/10/19 08:52:10;;;;;;;2.92;1.65;;;;;;;9.68;55.46;101382.02;1781949;79;21301;-58
2021/10/19 08:55:16;;;;;;;3.90;1.87;;;;;;;9.66;53.91;101369.48;1784591;79;21220;-60
2021/10/19 08:58:23;;;;;;;5.40;2.20;;;;;;;9.61;53.71;101364.98;1789686;79;21183;-60
2021/10/19 09:01:28;;;;;;;12.80;4.47;;;;;;;9.64;54.12;101368.79;1773255;79;21343;-60
2021/10/19 09:04:40;;;;;;;4.33;1.50;;;;;;;9.62;53.93;101379.00;1785599;79;21220;-60
2021/10/19 09:07:47;;;;;;;3.50;1.60;;;;;;;9.53;52.19;101378.52;1792067;79;21375;-63
2021/10/19 09:10:55;;;;;;;3.25;1.72;;;;;;;9.44;51.65;101372.03;1769018;80;21228;-60
2021/10/19 09:14:04;;;;;;;2.67;1.67;;;;;;;9.49;52.31;101366.13;1769689;81;21204;-64
2021/10/19 09:17:10;;;;;;;3.92;1.92;;;;;;;9.58;52.85;101362.52;1799800;79;21363;-61
2021/10/19 09:20:24;;;;;;;7.20;1.90;;;;;;;9.63;51.80;101363.81;1802638;79;21931;-62
2021/10/19 09:23:34;;;;;;;4.87;2.80;;;;;;;9.69;51.88;101361.02;1718169;83;21256;-61
2021/10/19 09:26:39;;;;;;;3.42;2.08;;;;;;;9.79;51.60;101355.87;1733408;83;21217;-63
2021/10/19 09:29:56;;;;;;;4.30;2.10;;;;;;;9.90;51.02;101354.83;1733875;83;21244;-62
2021/10/19 09:33:01;;;;;;;4.33;2.05;;;;;;;9.84;49.96;101363.64;1733964;83;21228;-60
2021/10/19 09:36:07;;;;;;;5.53;2.40;;;;;;;9.72;50.18;101357.46;1733642;82;21267;-59
2021/10/19 09:39:13;;;;;;;3.67;1.80;;;;;;;9.76;50.47;101356.67;1731297;82;21336;-62
2021/10/19 09:42:35;;;;;;;4.05;2.30;;;;;;;9.86;49.77;101351.52;1799213;80;21863;-58
2021/10/19 09:45:50;;;;;;;2.80;2.15;;;;;;;9.88;49.32;101354.98;1799766;79;21325;-60
2021/10/19 09:49:00;;;;;;;3.62;1.75;;;;;;;9.93;49.38;101349.06;1793208;79;21205;-60
2021/10/19 09:52:07;;;;;;;3.45;2.02;;;;;;;9.98;48.98;101368.14;1803149;79;21328;-61
2021/10/19 09:55:15;;;;;;;6.40;2.50;;;;;;;10.09;48.57;101347.47;1802347;79;21351;-62
2021/10/19 09:58:23;;;;;;;3.95;2.00;;;;;;;10.17;48.31;101356.30;1802262;79;21845;-60
2021/10/19 10:01:33;;;;;;;3.40;2.05;;;;;;;10.19;48.32;101357.02;1802150;79;21744;-61
2021/10/19 10:04:41;;;;;;;8.40;2.00;;;;;;;10.15;47.92;101348.73;1796442;79;21209;-61
2021/10/19 10:07:53;;;;;;;4.60;2.15;;;;;;;10.04;47.78;101356.59;1781051;79;21210;-60
2021/10/19 10:11:07;;;;;;;4.90;1.80;;;;;;;9.99;48.14;101351.23;1781324;79;21329;-65
2021/10/19 10:14:19;;;;;;;3.85;1.77;;;;;;;10.03;48.55;101356.25;1769360;81;21177;-60
2021/10/19 10:17:31;;;;;;;4.60;1.67;;;;;;;10.14;47.97;101347.90;1776902;79;21219;-60
2021/10/19 10:20:52;;;;;;;4.75;1.60;;;;;;;10.29;46.57;101349.11;1788524;79;21463;-61
2021/10/19 10:24:15;;;;;;;2.22;1.50;;;;;;;10.51;46.03;101356.93;1696228;82;21200;-59
2021/10/19 10:27:26;;;;;;;1.40;1.17;;;;;;;10.78;46.04;101342.39;1770495;79;21281;-63
2021/10/19 10:30:35;;;;;;;3.60;1.77;;;;;;;11.01;44.07;101352.37;1784831;79;21214;-61
2021/10/19 10:33:50;;;;;;;2.90;1.40;;;;;;;11.11;43.77;101353.19;1802041;78;21723;-59
2021/10/19 10:37:18;;;;;;;3.35;1.40;;;;;;;11.22;43.75;101335.14;1735692;79;21319;-64
2021/10/19 10:40:56;;;;;;;2.62;1.60;;;;;;;11.32;43.70;101338.67;1785246;79;21209;-67
2021/10/19 10:44:10;;;;;;;3.05;1.30;;;;;;;11.37;43.53;101340.44;1728083;82;21371;-61
2021/10/19 10:47:30;;;;;;;2.00;1.40;;;;;;;11.27;43.39;101343.26;1780729;79;21853;-62
2021/10/19 10:50:45;;;;;;;3.87;1.72;;;;;;;11.06;43.53;101355.52;1792698;79;21212;-64
2021/10/19 10:53:55;;;;;;;2.27;1.50;;;;;;;10.85;43.20;101358.55;1782897;79;21194;-62
2021/10/19 10:57:17;;;;;;;3.72;1.52;;;;;;;10.76;43.64;101351.27;1705582;82;21211;-64
2021/10/19 11:00:22;;;;;;;2.90;1.72;;;;;;;10.93;43.51;101346.81;1692509;81;21260;-64
2021/10/19 11:03:30;;;;;;;3.58;1.75;;;;;;;11.24;43.89;101336.69;1732433;82;21204;-64
2021/10/19 11:06:41;;;;;;;4.47;1.80;;;;;;;11.49;43.26;101345.52;1723953;82;21190;-62
2021/10/19 11:09:48;;;;;;;4.00;1.47;;;;;;;11.62;42.91;101347.84;1724110;82;21177;-61
2021/10/19 11:13:02;;;;;;;2.85;1.37;;;;;;;11.82;42.57;101339.80;1751041;82;21182;-61
2021/10/19 11:16:08;;;;;;;2.90;1.45;;;;;;;11.98;41.94;101340.78;1702725;82;21216;-62
2021/10/19 11:19:28;;;;;;;3.27;1.50;;;;;;;12.05;41.42;101346.45;1741963;81;21801;-63
2021/10/19 11:22:33;;;;;;;2.67;1.47;;;;;;;11.88;41.58;101339.14;1724713;82;21963;-61
2021/10/19 11:25:39;;;;;;;5.37;1.52;;;;;;;11.63;41.71;101321.66;1738851;82;21746;-62
2021/10/19 11:28:44;;;;;;;3.42;1.40;;;;;;;11.40;41.63;101342.33;1713636;82;22017;-63
2021/10/19 11:31:52;;;;;;;5.12;1.50;;;;;;;11.13;41.92;101343.77;1731110;82;21274;-64
2021/10/19 11:35:03;;;;;;;3.02;1.20;;;;;;;11.05;42.37;101344.22;1786449;79;21177;-63
2021/10/19 11:38:10;;;;;;;3.33;1.62;;;;;;;11.24;42.68;101350.92;1795436;79;21606;-63
2021/10/19 11:41:18;;;;;;;2.60;1.65;;;;;;;11.49;42.38;101360.59;1781634;79;21224;-61
2021/10/19 11:44:26;;;;;;;1.77;1.25;;;;;;;11.68;41.55;101348.11;1787898;79;22116;-62
2021/10/19 11:47:32;;;;;;;3.00;1.37;;;;;;;11.76;40.80;101340.44;1801216;79;21339;-61
2021/10/19 11:50:41;;;;;;;2.50;1.50;;;;;;;11.84;41.08;101345.98;1794237;79;21339;-61
2021/10/19 11:53:48;;;;;;;2.77;1.40;;;;;;;11.95;41.04;101345.72;1787462;79;21333;-63
2021/10/19 11:57:10;;;;;;;3.62;2.15;;;;;;;12.10;40.78;101350.95;1774713;79;21836;-64
2021/10/19 12:00:19;;;;;;;4.90;2.72;;;;;;;12.17;40.00;101349.30;1778054;79;21871;-62
2021/10/19 12:03:39;;;;;;;6.83;1.90;;;;;;;12.16;40.52;101350.33;1777654;79;21876;-62
2021/10/19 12:06:47;;;;;;;7.65;3.90;;;;;;;12.18;40.57;101337.81;1779861;79;21826;-60
2021/10/19 12:10:11;;;;;;;4.75;2.02;;;;;;;12.26;40.89;101338.70;1733058;81;21673;-61
2021/10/19 12:13:26;;;;;;;3.95;1.87;;;;;;;12.44;40.96;101350.47;1778812;79;21222;-57
2021/10/19 12:16:40;;;;;;;3.75;1.70;;;;;;;12.65;41.30;101344.55;1783012;79;21374;-60
2021/10/19 12:19:46;;;;;;;2.45;1.65;;;;;;;12.62;40.70;101342.98;1778913;79;21753;-60
2021/10/19 12:22:56;;;;;;;4.97;1.60;;;;;;;12.44;40.96;101353.22;1783437;79;21376;-59
2021/10/19 12:26:03;;;;;;;2.90;1.37;;;;;;;12.21;41.07;101342.44;1781638;79;21360;-65
2021/10/19 12:29:16;;;;;;;2.05;1.40;;;;;;;12.01;41.31;101340.45;1777990;79;21822;-65
2021/10/19 12:32:24;;;;;;;4.08;1.40;;;;;;;11.82;41.27;101353.51;1793267;79;21312;-64
2021/10/19 12:35:31;;;;;;;3.40;1.30;;;;;;;11.61;41.70;101348.34;1776027;79;21266;-65
2021/10/19 12:38:42;;;;;;;4.70;1.40;;;;;;;11.48;41.89;101355.27;1779384;79;21347;-67
2021/10/19 12:41:51;;;;;;;3.27;1.30;;;;;;;11.37;42.27;101348.66;1770219;81;21196;-66
2021/10/19 12:44:58;;;;;;;3.45;1.80;;;;;;;11.48;42.89;101352.53;1791022;79;21311;-65
2021/10/19 12:48:16;;;;;;;2.67;1.40;;;;;;;11.67;42.56;101355.13;1771541;80;21346;-66
2021/10/19 12:51:26;;;;;;;2.52;1.30;;;;;;;11.65;42.12;101353.05;1776210;79;21247;-64
2021/10/19 12:54:39;;;;;;;2.72;1.42;;;;;;;11.54;42.57;101354.09;1779784;79;21320;-65
2021/10/19 12:57:49;;;;;;;3.05;1.50;;;;;;;11.70;42.25;101361.66;1775915;79;21662;-66
2021/10/19 13:01:13;;;;;;;3.17;1.95;;;;;;;11.85;41.70;101349.07;1743713;81;21168;-66
2021/10/19 13:04:21;;;;;;;2.47;1.42;;;;;;;12.11;41.64;101358.69;1744241;81;21195;-63
2021/10/19 13:07:27;;;;;;;3.02;1.77;;;;;;;12.28;41.61;101377.84;1763163;81;21187;-64
2021/10/19 13:10:39;;;;;;;2.92;1.50;;;;;;;12.15;41.09;101365.05;1744925;81;21847;-64
2021/10/19 13:13:45;;;;;;;3.15;1.60;;;;;;;11.84;41.60;101370.69;1754442;81;21168;-65
2021/10/19 13:16:51;;;;;;;3.12;1.30;;;;;;;11.51;42.22;101381.00;1738924;81;21207;-64
2021/10/19 13:19:58;;;;;;;2.55;1.60;;;;;;;11.23;42.86;101380.20;1742848;81;21756;-67
2021/10/19 13:23:04;;;;;;;2.17;1.30;;;;;;;10.99;43.50;101377.73;1743643;81;21230;-68
2021/10/19 13:26:09;;;;;;;9.75;3.58;;;;;;;10.84;44.14;101374.64;1754125;81;21542;-66
2021/10/19 13:29:16;;;;;;;7.22;2.90;;;;;;;10.75;44.50;101370.06;1756826;81;21710;-66
2021/10/19 13:32:22;;;;;;;5.58;2.92;;;;;;;10.80;44.74;101371.00;1754082;80;21168;-63
2021/10/19 13:35:30;;;;;;;12.03;6.62;;;;;;;10.92;44.76;101379.34;1698394;84;21734;-62
2021/10/19 13:38:37;;;;;;;8.63;4.80;;;;;;;11.04;44.46;101369.88;1763532;81;21197;-62
2021/10/19 13:41:45;;;;;;;7.95;4.33;;;;;;;11.16;44.49;101374.14;1694367;84;21189;-62
2021/10/19 13:44:52;;;;;;;5.17;2.77;;;;;;;11.24;44.34;101382.45;1766835;81;21319;-62
2021/10/19 13:47:58;;;;;;;4.10;2.47;;;;;;;11.30;44.20;101388.67;1755969;81;21579;-59
2021/10/19 13:51:05;;;;;;;15.60;6.92;;;;;;;11.38;43.28;101398.34;1742157;81;21208;-65
2021/10/19 13:54:10;;;;;;;13.15;6.65;;;;;;;11.39;43.23;101375.38;1743996;81;21184;-62
2021/10/19 13:57:15;;;;;;;14.05;6.50;;;;;;;11.41;43.67;101386.56;1764721;81;21447;-64
2021/10/19 14:00:22;;;;;;;7.53;3.50;;;;;;;11.35;43.66;101380.84;1742823;80;21772;-63
2021/10/19 14:03:28;;;;;;;3.70;1.40;;;;;;;11.24;44.07;101390.14;1743515;81;21203;-62
2021/10/19 14:06:34;;;;;;;3.55;1.40;;;;;;;11.10;42.83;101403.54;1772600;79;21255;-61
2021/10/19 14:09:41;;;;;;;3.20;1.92;;;;;;;10.91;42.53;101388.59;1800061;79;21344;-62
2021/10/19 14:12:47;;;;;;;4.53;2.33;;;;;;;10.79;43.15;101403.48;1789032;79;21276;-62
2021/10/19 14:15:56;;;;;;;4.08;2.85;;;;;;;10.73;43.48;101419.17;1757970;81;21193;-63
2021/10/19 14:19:04;;;;;;;6.97;2.60;;;;;;;10.65;43.93;101401.27;1758182;81;22278;-62
2021/10/19 14:22:10;;;;;;;4.12;2.12;;;;;;;10.60;44.11;101404.45;1772499;79;21884;-62
2021/10/19 14:25:16;;;;;;;5.62;2.10;;;;;;;10.51;44.22;101403.47;1774910;79;21706;-63
2021/10/19 14:28:21;;;;;;;2.17;1.57;;;;;;;10.38;44.30;101398.88;1792869;79;21185;-64
2021/10/19 14:31:27;;;;;;;3.30;1.60;;;;;;;10.24;44.46;101408.91;1800774;79;21370;-62
2021/10/19 14:34:33;;;;;;;4.15;2.75;;;;;;;10.06;44.62;101411.16;1801541;79;21339;-62